Time;durP1;ratioP1;P1;durP2;ratioP2;P2;SDS_P1;SDS_P2;PMS_P1;PMS_P2;Temp;Humidity;BMP_temperature;BMP_pressure;BME280_temperature;BME280_humidity;BME280_pressure;Samples;Min_cycle;Max_cycle;Signal;HPM_P1;HPM_P2
2020/12/28 00:02:17;;;;;;;0.95;0.68;;;4.20;99.90;;;;;;5023494;28;20025;-59
2020/12/28 00:04:42;;;;;;;1.05;0.70;;;4.20;99.90;;;;;;5024572;28;20028;-60
2020/12/28 00:07:08;;;;;;;1.02;0.57;;;4.20;99.90;;;;;;5026448;28;20041;-60
2020/12/28 00:09:34;;;;;;;0.85;0.65;;;4.20;99.90;;;;;;5021522;28;20117;-60
2020/12/28 00:12:00;;;;;;;2.90;0.60;;;4.20;99.90;;;;;;5025918;28;20056;-60
2020/12/28 00:14:27;;;;;;;0.85;0.60;;;4.20;99.90;;;;;;5020781;28;20080;-59
2020/12/28 00:16:53;;;;;;;0.52;0.43;;;4.20;99.90;;;;;;5023721;28;20037;-58
2020/12/28 00:19:19;;;;;;;0.80;0.50;;;4.20;99.90;;;;;;5022651;28;20073;-60
2020/12/28 00:21:45;;;;;;;0.68;0.35;;;4.20;99.90;;;;;;5023556;28;20030;-61
2020/12/28 00:24:11;;;;;;;1.52;0.50;;;4.20;99.90;;;;;;5024215;28;20057;-60
2020/12/28 00:26:37;;;;;;;0.57;0.47;;;4.10;99.90;;;;;;5020884;28;20479;-61
2020/12/28 00:29:04;;;;;;;1.17;0.70;;;4.10;99.90;;;;;;5040560;28;20017;-61
2020/12/28 00:31:29;;;;;;;0.50;0.50;;;4.10;99.90;;;;;;5034150;28;20033;-61
2020/12/28 00:33:55;;;;;;;0.82;0.60;;;4.10;99.90;;;;;;5028794;28;20498;-61
2020/12/28 00:36:20;;;;;;;0.73;0.52;;;4.10;99.90;;;;;;5015129;28;20033;-59
2020/12/28 00:38:46;;;;;;;1.40;0.73;;;4.10;99.90;;;;;;5038506;28;20120;-60
2020/12/28 00:41:12;;;;;;;0.60;0.30;;;4.10;99.90;;;;;;5017712;28;20029;-61
2020/12/28 00:43:40;;;;;;;0.47;0.45;;;4.10;99.90;;;;;;5038907;28;20482;-59
2020/12/28 00:46:10;;;;;;;0.88;0.52;;;4.10;99.90;;;;;;5024247;28;20021;-61
2020/12/28 00:48:36;;;;;;;1.15;0.52;;;4.10;99.90;;;;;;5040707;28;20040;-60
2020/12/28 00:51:02;;;;;;;1.77;0.65;;;4.00;99.90;;;;;;5040134;28;20020;-59
2020/12/28 00:53:29;;;;;;;0.20;0.20;;;4.00;99.90;;;;;;5027017;28;20037;-60
2020/12/28 00:55:58;;;;;;;1.35;0.73;;;4.00;99.90;;;;;;5028373;28;20041;-62
2020/12/28 00:58:24;;;;;;;0.55;0.30;;;4.00;99.90;;;;;;5037847;28;20036;-60
2020/12/28 01:00:50;;;;;;;1.55;0.50;;;4.00;99.90;;;;;;5036628;28;20112;-60
2020/12/28 01:03:16;;;;;;;3.35;1.33;;;4.00;99.90;;;;;;5030733;28;20072;-61
2020/12/28 01:05:42;;;;;;;0.40;0.40;;;4.10;99.90;;;;;;5039461;28;20032;-61
2020/12/28 01:08:08;;;;;;;0.57;0.50;;;4.10;99.90;;;;;;5044168;28;20445;-61
2020/12/28 01:10:34;;;;;;;0.68;0.40;;;4.10;99.90;;;;;;5038402;28;20080;-61
2020/12/28 01:13:00;;;;;;;0.55;0.32;;;4.10;99.90;;;;;;5039412;28;20083;-61
2020/12/28 01:15:26;;;;;;;0.63;0.40;;;4.10;99.90;;;;;;5037972;28;20428;-61
2020/12/28 01:17:53;;;;;;;0.90;0.30;;;4.10;99.90;;;;;;5039564;28;20503;-60
2020/12/28 01:20:18;;;;;;;1.17;0.50;;;4.10;99.90;;;;;;5033218;28;20028;-60
2020/12/28 01:22:44;;;;;;;0.32;0.30;;;4.10;99.90;;;;;;5034444;28;20033;-60
2020/12/28 01:25:09;;;;;;;0.30;0.30;;;4.20;99.90;;;;;;5046110;28;20068;-59
2020/12/28 01:27:35;;;;;;;0.20;0.20;;;4.20;99.90;;;;;;5031436;28;20041;-60
2020/12/28 01:30:00;;;;;;;0.38;0.30;;;4.20;99.90;;;;;;5034183;28;20112;-61
2020/12/28 01:32:26;;;;;;;0.60;0.30;;;4.30;99.90;;;;;;5035973;28;20021;-61
2020/12/28 01:34:51;;;;;;;0.98;0.50;;;4.30;99.90;;;;;;5036737;28;20052;-60
2020/12/28 01:37:17;;;;;;;0.45;0.38;;;4.20;99.90;;;;;;5044696;28;20098;-60
2020/12/28 01:39:42;;;;;;;0.43;0.28;;;4.20;99.90;;;;;;5037900;28;20457;-59
2020/12/28 01:42:08;;;;;;;0.32;0.30;;;4.30;99.90;;;;;;5018491;28;20779;-59
2020/12/28 01:44:34;;;;;;;0.70;0.40;;;4.30;99.90;;;;;;5014211;28;20060;-61
2020/12/28 01:47:00;;;;;;;0.40;0.40;;;4.30;99.90;;;;;;5030451;28;20040;-61
2020/12/28 01:49:25;;;;;;;0.55;0.40;;;4.30;99.90;;;;;;5019511;28;20033;-61
2020/12/28 01:51:51;;;;;;;3.53;0.50;;;4.30;99.90;;;;;;5037925;28;20030;-61
2020/12/28 01:54:19;;;;;;;0.57;0.50;;;4.30;99.90;;;;;;5025703;28;20033;-61
2020/12/28 01:56:47;;;;;;;0.40;0.30;;;4.30;99.90;;;;;;5029506;28;21450;-60
2020/12/28 01:59:14;;;;;;;1.95;0.40;;;4.30;99.90;;;;;;5030705;28;20021;-60
2020/12/28 02:01:41;;;;;;;0.90;0.30;;;4.30;99.90;;;;;;5034162;28;20030;-59
2020/12/28 02:04:08;;;;;;;0.60;0.50;;;4.30;99.90;;;;;;5023592;28;20498;-58
2020/12/28 02:06:34;;;;;;;1.35;0.45;;;4.30;99.90;;;;;;5032111;28;20029;-61
2020/12/28 02:09:00;;;;;;;1.98;0.35;;;4.30;99.90;;;;;;5047181;28;20028;-60
2020/12/28 02:11:28;;;;;;;0.20;0.20;;;4.30;99.90;;;;;;5042206;28;20029;-59
2020/12/28 02:13:54;;;;;;;0.45;0.30;;;4.30;99.90;;;;;;5049603;28;20025;-61
2020/12/28 02:16:20;;;;;;;0.38;0.30;;;4.30;99.90;;;;;;5040883;28;20052;-59
2020/12/28 02:18:46;;;;;;;0.80;0.50;;;4.30;99.90;;;;;;5041258;28;20028;-60
2020/12/28 02:21:12;;;;;;;0.30;0.30;;;4.30;99.90;;;;;;5042047;28;20056;-61
2020/12/28 02:23:37;;;;;;;0.30;0.20;;;4.30;99.90;;;;;;5032376;28;20083;-61
2020/12/28 02:26:03;;;;;;;0.30;0.30;;;4.30;99.90;;;;;;5048575;28;20031;-58
2020/12/28 02:28:28;;;;;;;0.82;0.30;;;4.30;99.90;;;;;;5035140;28;20037;-60
2020/12/28 02:30:54;;;;;;;0.43;0.38;;;4.30;99.90;;;;;;5049394;28;20033;-59
2020/12/28 02:33:19;;;;;;;0.93;0.40;;;4.30;99.90;;;;;;5041307;28;20103;-60
2020/12/28 02:35:45;;;;;;;0.22;0.20;;;4.30;99.90;;;;;;5035586;28;20037;-59
2020/12/28 02:38:11;;;;;;;1.90;0.35;;;4.30;99.90;;;;;;5041510;28;20403;-60
2020/12/28 02:40:36;;;;;;;2.88;0.32;;;4.20;99.90;;;;;;5041614;28;20040;-60
2020/12/28 02:43:02;;;;;;;0.32;0.20;;;4.20;99.90;;;;;;5043093;28;20017;-61
2020/12/28 02:45:27;;;;;;;0.50;0.30;;;4.20;99.90;;;;;;5039300;28;20441;-59
2020/12/28 02:47:53;;;;;;;0.30;0.30;;;4.30;99.90;;;;;;5043306;28;20025;-61
2020/12/28 02:50:19;;;;;;;0.40;0.28;;;4.20;99.90;;;;;;5037911;28;20523;-59
2020/12/28 02:52:45;;;;;;;0.32;0.28;;;4.30;99.90;;;;;;5022951;28;20022;-60
2020/12/28 02:55:11;;;;;;;0.20;0.20;;;4.30;99.90;;;;;;5040860;28;20122;-59
2020/12/28 02:57:36;;;;;;;0.30;0.20;;;4.30;99.90;;;;;;5036619;28;20479;-60
2020/12/28 03:00:04;;;;;;;0.60;0.50;;;4.30;99.90;;;;;;5043996;28;20028;-60
2020/12/28 03:02:30;;;;;;;0.30;0.30;;;4.30;99.90;;;;;;5033907;28;20021;-60
2020/12/28 03:04:55;;;;;;;0.50;0.30;;;4.30;99.90;;;;;;5032639;28;20413;-60
2020/12/28 03:07:21;;;;;;;0.98;0.30;;;4.30;99.90;;;;;;5027049;28;20602;-58
2020/12/28 03:09:46;;;;;;;0.52;0.35;;;4.30;99.90;;;;;;5037269;28;20104;-60
2020/12/28 03:12:12;;;;;;;0.17;0.17;;;4.30;99.90;;;;;;5041782;28;20112;-59
2020/12/28 03:14:38;;;;;;;0.82;0.40;;;4.30;99.90;;;;;;5043758;28;20057;-61
2020/12/28 03:17:03;;;;;;;0.50;0.25;;;4.30;99.90;;;;;;5042345;28;20075;-60
2020/12/28 03:19:31;;;;;;;0.45;0.20;;;4.40;99.90;;;;;;5043224;28;20017;-58
2020/12/28 03:21:57;;;;;;;1.00;0.30;;;4.40;99.90;;;;;;5043011;28;20024;-60
2020/12/28 03:24:22;;;;;;;0.20;0.20;;;4.40;99.90;;;;;;5044149;28;20045;-60
2020/12/28 03:26:48;;;;;;;0.20;0.20;;;4.40;99.90;;;;;;5041174;28;20121;-61
2020/12/28 03:29:13;;;;;;;0.35;0.20;;;4.40;99.90;;;;;;5044055;28;20021;-61
2020/12/28 03:31:39;;;;;;;0.57;0.30;;;4.40;99.90;;;;;;5039470;28;20029;-62
2020/12/28 03:34:06;;;;;;;1.50;0.40;;;4.40;99.90;;;;;;5028633;28;20078;-62
2020/12/28 03:36:32;;;;;;;0.22;0.22;;;4.40;99.90;;;;;;5042681;28;20024;-58
2020/12/28 03:38:57;;;;;;;0.20;0.20;;;4.40;99.90;;;;;;5038278;28;20092;-59
2020/12/28 03:41:23;;;;;;;1.38;0.30;;;4.40;99.90;;;;;;5039296;28;20052;-60
2020/12/28 03:43:48;;;;;;;0.63;0.38;;;4.30;99.90;;;;;;5037626;28;20395;-60
2020/12/28 03:46:14;;;;;;;0.40;0.25;;;4.30;99.90;;;;;;5043849;28;20521;-59
2020/12/28 03:48:39;;;;;;;0.50;0.35;;;4.30;99.90;;;;;;5040103;28;20027;-60
2020/12/28 03:51:05;;;;;;;0.20;0.20;;;4.30;99.90;;;;;;5041649;28;20029;-58
2020/12/28 03:53:30;;;;;;;0.40;0.38;;;4.30;99.90;;;;;;5032555;28;20034;-60
2020/12/28 03:55:56;;;;;;;1.20;0.30;;;4.20;99.90;;;;;;5042243;28;20043;-60
2020/12/28 03:58:22;;;;;;;0.22;0.22;;;4.20;99.90;;;;;;5035714;28;20487;-60
2020/12/28 04:00:47;;;;;;;0.32;0.20;;;4.20;99.90;;;;;;5035625;28;20502;-59
2020/12/28 04:03:13;;;;;;;0.47;0.32;;;4.20;99.90;;;;;;5037108;28;20075;-63
2020/12/28 04:05:39;;;;;;;0.32;0.30;;;4.30;99.90;;;;;;5034237;28;20045;-59
2020/12/28 04:08:06;;;;;;;0.17;0.17;;;4.20;99.90;;;;;;5042774;28;20108;-58
2020/12/28 04:10:33;;;;;;;0.40;0.32;;;4.20;99.90;;;;;;5042673;28;20083;-60
2020/12/28 04:12:58;;;;;;;0.45;0.20;;;4.20;99.90;;;;;;5038179;28;20037;-60
2020/12/28 04:15:24;;;;;;;0.10;0.10;;;4.20;99.90;;;;;;5043529;28;20037;-60
2020/12/28 04:17:50;;;;;;;0.47;0.20;;;4.20;99.90;;;;;;5033625;28;20135;-59
2020/12/28 04:20:15;;;;;;;2.03;0.77;;;4.20;99.90;;;;;;5043185;28;20025;-60
2020/12/28 04:22:41;;;;;;;0.38;0.20;;;4.30;99.90;;;;;;5036327;28;20120;-58
2020/12/28 04:25:06;;;;;;;0.20;0.20;;;4.30;99.90;;;;;;5042440;28;20032;-59
2020/12/28 04:27:32;;;;;;;0.47;0.30;;;4.30;99.90;;;;;;5043299;28;20037;-60
2020/12/28 04:29:57;;;;;;;0.82;0.30;;;4.20;99.90;;;;;;5035401;28;20034;-58
2020/12/28 04:32:23;;;;;;;0.35;0.30;;;4.20;99.90;;;;;;5040764;28;20448;-59
2020/12/28 04:34:48;;;;;;;0.77;0.40;;;4.20;99.90;;;;;;5030299;28;20487;-59
2020/12/28 04:37:14;;;;;;;0.38;0.30;;;4.20;99.90;;;;;;5042848;28;20041;-59
2020/12/28 04:39:39;;;;;;;0.20;0.20;;;4.20;99.90;;;;;;5038143;28;20112;-60
2020/12/28 04:42:05;;;;;;;0.55;0.32;;;4.20;99.90;;;;;;5042854;28;20070;-60
2020/12/28 04:44:30;;;;;;;1.10;0.40;;;4.10;99.90;;;;;;5029189;28;20068;-60
2020/12/28 04:46:56;;;;;;;0.50;0.40;;;4.00;99.90;;;;;;5037952;28;20056;-60
2020/12/28 04:49:23;;;;;;;0.20;0.20;;;4.00;99.90;;;;;;5042032;28;20033;-60
2020/12/28 04:51:53;;;;;;;0.55;0.20;;;4.00;99.90;;;;;;5026092;28;20126;-59
2020/12/28 04:54:19;;;;;;;0.80;0.30;;;3.90;99.90;;;;;;5040206;28;20056;-60
2020/12/28 04:56:44;;;;;;;1.00;0.32;;;3.90;99.90;;;;;;5041133;28;20482;-59
2020/12/28 04:59:10;;;;;;;1.23;0.40;;;3.80;99.90;;;;;;5041809;28;20541;-60
2020/12/28 05:01:36;;;;;;;0.10;0.10;;;3.70;99.90;;;;;;5042657;28;20029;-60
2020/12/28 05:04:02;;;;;;;0.17;0.17;;;3.60;99.90;;;;;;5034632;28;20029;-60
2020/12/28 05:06:27;;;;;;;0.30;0.20;;;3.50;99.90;;;;;;5042261;28;20096;-62
2020/12/28 05:08:54;;;;;;;0.38;0.20;;;3.40;99.90;;;;;;5030708;28;20113;-59
2020/12/28 05:11:20;;;;;;;0.38;0.20;;;3.40;99.90;;;;;;5042943;28;20029;-58
2020/12/28 05:13:49;;;;;;;1.08;0.40;;;3.30;99.90;;;;;;5029877;28;20036;-59
2020/12/28 05:16:15;;;;;;;0.22;0.22;;;3.20;99.90;;;;;;5023085;28;20037;-60
2020/12/28 05:18:41;;;;;;;0.80;0.30;;;3.10;99.90;;;;;;5035576;28;20394;-58
2020/12/28 05:21:06;;;;;;;0.57;0.43;;;3.00;99.90;;;;;;5033043;28;20029;-60
2020/12/28 05:23:33;;;;;;;0.52;0.30;;;3.00;99.90;;;;;;5038293;28;20028;-61
2020/12/28 05:25:58;;;;;;;0.55;0.40;;;3.00;99.90;;;;;;5027759;28;20029;-60
2020/12/28 05:28:32;;;;;;;0.63;0.40;;;3.00;99.90;;;;;;5042557;28;20040;-59
2020/12/28 05:30:59;;;;;;;1.33;0.22;;;2.90;99.90;;;;;;5036908;28;20029;-60
2020/12/28 05:33:31;;;;;;;0.45;0.40;;;3.00;99.90;;;;;;5045431;28;20032;-59
2020/12/28 05:35:57;;;;;;;0.20;0.20;;;2.90;99.90;;;;;;5040193;28;20029;-60
2020/12/28 05:38:26;;;;;;;0.43;0.10;;;3.00;99.90;;;;;;5047187;28;20024;-60
2020/12/28 05:41:04;;;;;;;0.57;0.30;;;3.00;99.90;;;;;;5041606;28;20024;-60
2020/12/28 05:43:30;;;;;;;0.57;0.40;;;3.10;99.90;;;;;;5030024;28;20087;-60
2020/12/28 05:45:56;;;;;;;0.70;0.30;;;3.20;99.90;;;;;;5041597;28;20052;-60
2020/12/28 05:48:25;;;;;;;1.30;0.45;;;3.30;99.90;;;;;;5039512;28;20491;-59
2020/12/28 05:50:57;;;;;;;3.03;0.98;;;3.30;99.90;;;;;;5046851;28;20390;-60
2020/12/28 05:53:24;;;;;;;2.22;0.82;;;3.40;99.90;;;;;;5034825;28;20076;-58
2020/12/28 05:55:51;;;;;;;4.03;2.17;;;3.50;99.90;;;;;;4999665;28;20057;-59
2020/12/28 05:58:19;;;;;;;1.08;0.60;;;3.50;99.90;;;;;;5029708;28;20033;-60
2020/12/28 06:00:48;;;;;;;1.42;0.80;;;3.50;99.90;;;;;;5023788;28;20080;-60
2020/12/28 06:03:24;;;;;;;1.08;0.73;;;3.60;99.90;;;;;;5038576;28;20021;-59
2020/12/28 06:05:52;;;;;;;4.00;2.25;;;3.60;99.90;;;;;;5044292;28;20112;-63
2020/12/28 06:08:18;;;;;;;2.05;1.83;;;3.50;99.90;;;;;;5039610;28;20029;-60
2020/12/28 06:10:43;;;;;;;1.65;1.27;;;3.50;99.90;;;;;;5040795;28;20041;-60
2020/12/28 06:13:09;;;;;;;2.08;1.25;;;3.50;99.90;;;;;;5040552;28;20488;-59
2020/12/28 06:15:34;;;;;;;12.20;4.00;;;3.40;99.90;;;;;;5042546;28;20414;-60
2020/12/28 06:18:00;;;;;;;60.55;18.60;;;3.40;99.90;;;;;;5028513;28;20788;-60
2020/12/28 06:20:30;;;;;;;39.65;11.85;;;3.30;99.90;;;;;;5045570;28;20029;-60
2020/12/28 06:23:03;;;;;;;25.08;6.35;;;3.30;99.90;;;;;;5043065;28;20025;-60
2020/12/28 06:25:29;;;;;;;69.63;18.10;;;3.20;99.90;;;;;;5045490;28;20029;-58
2020/12/28 06:27:55;;;;;;;46.70;13.43;;;3.20;99.90;;;;;;5033674;28;20035;-58
2020/12/28 06:30:22;;;;;;;244.13;72.22;;;3.10;99.90;;;;;;5036063;28;20487;-60
2020/12/28 06:32:49;;;;;;;123.93;37.53;;;3.00;99.90;;;;;;5039925;28;20037;-61
2020/12/28 06:35:16;;;;;;;192.52;64.38;;;3.00;99.90;;;;;;5033832;28;20025;-60
2020/12/28 06:37:55;;;;;;;164.00;56.15;;;2.90;99.90;;;;;;5037164;28;20037;-60
2020/12/28 06:40:35;;;;;;;129.48;44.28;;;2.80;99.90;;;;;;5043503;28;20067;-61
2020/12/28 06:43:17;;;;;;;166.88;59.58;;;2.70;99.90;;;;;;5030121;28;20371;-60
2020/12/28 06:45:45;;;;;;;127.78;51.70;;;2.60;99.90;;;;;;5038429;28;20037;-60
2020/12/28 06:48:25;;;;;;;24.65;9.55;;;2.50;99.90;;;;;;5039936;28;20318;-61
2020/12/28 06:50:52;;;;;;;21.08;7.78;;;2.50;99.90;;;;;;5034154;28;20498;-60
2020/12/28 06:53:25;;;;;;;27.75;12.38;;;2.40;99.90;;;;;;5040828;28;20491;-62
2020/12/28 06:55:51;;;;;;;22.23;9.68;;;2.30;99.90;;;;;;5038238;28;20026;-61
2020/12/28 06:58:17;;;;;;;29.48;11.80;;;2.20;99.90;;;;;;5044122;28;20036;-61
2020/12/28 07:00:42;;;;;;;44.35;14.65;;;2.20;99.90;;;;;;5043222;28;20022;-61
2020/12/28 07:03:15;;;;;;;235.70;78.13;;;2.10;99.90;;;;;;5043064;28;20100;-62
2020/12/28 07:05:41;;;;;;;108.47;36.23;;;2.00;99.90;;;;;;5040931;28;20490;-62
2020/12/28 07:08:07;;;;;;;124.63;41.53;;;1.90;99.90;;;;;;5043202;28;20021;-61
2020/12/28 07:10:33;;;;;;;112.15;39.67;;;1.90;99.90;;;;;;5043945;28;20044;-62
2020/12/28 07:13:03;;;;;;;214.85;79.93;;;1.80;99.90;;;;;;5043687;28;20029;-62
2020/12/28 07:15:29;;;;;;;154.57;60.90;;;1.80;99.90;;;;;;5039912;28;20047;-62
2020/12/28 07:17:54;;;;;;;115.22;37.95;;;1.70;99.90;;;;;;5042662;28;20112;-62
2020/12/28 07:20:20;;;;;;;121.40;33.72;;;1.70;99.90;;;;;;5035596;28;20029;-62
2020/12/28 07:22:45;;;;;;;113.95;33.38;;;1.60;99.90;;;;;;5038340;28;20021;-62
2020/12/28 07:25:12;;;;;;;102.57;29.58;;;1.60;99.90;;;;;;5035986;28;20018;-62
2020/12/28 07:27:42;;;;;;;53.38;15.27;;;1.60;99.90;;;;;;5034474;28;20476;-61
2020/12/28 07:30:13;;;;;;;56.33;18.05;;;1.60;99.90;;;;;;5031427;28;20051;-61
2020/12/28 07:32:40;;;;;;;29.65;10.32;;;1.50;99.90;;;;;;5035332;28;20025;-60
2020/12/28 07:35:07;;;;;;;5.82;2.35;;;1.50;99.90;;;;;;5031533;28;20032;-60
2020/12/28 07:37:39;;;;;;;8.32;2.88;;;1.50;99.90;;;;;;5032563;28;20099;-61
2020/12/28 07:40:05;;;;;;;4.68;1.67;;;1.50;99.90;;;;;;5042172;28;20028;-61
2020/12/28 07:42:31;;;;;;;3.83;1.15;;;1.60;99.90;;;;;;5030484;28;20083;-60
2020/12/28 07:45:01;;;;;;;1.30;0.70;;;1.60;99.90;;;;;;5031032;28;20100;-61
2020/12/28 07:47:40;;;;;;;0.95;0.52;;;1.60;99.90;;;;;;5034831;28;20139;-61
2020/12/28 07:50:08;;;;;;;0.98;0.60;;;1.70;99.90;;;;;;5041206;28;20032;-61
2020/12/28 07:52:41;;;;;;;2.05;0.70;;;1.70;99.90;;;;;;5040456;28;20042;-60
2020/12/28 07:55:41;;;;;;;1.77;0.60;;;1.70;99.90;;;;;;5038855;28;20044;-60
2020/12/28 07:58:27;;;;;;;5.35;1.90;;;1.80;99.90;;;;;;5033509;28;20057;-60
2020/12/28 08:00:54;;;;;;;16.48;5.22;;;1.80;99.90;;;;;;4988019;28;20084;-58
2020/12/28 08:03:29;;;;;;;8.55;4.10;;;1.70;99.90;;;;;;5000569;28;20021;-58
2020/12/28 08:06:01;;;;;;;12.07;5.22;;;1.80;99.90;;;;;;5031835;28;20029;-59
2020/12/28 08:08:27;;;;;;;15.15;6.65;;;1.70;99.90;;;;;;5038171;28;20036;-60
2020/12/28 08:10:55;;;;;;;6.90;3.42;;;1.70;99.90;;;;;;5035086;28;20037;-60
2020/12/28 08:13:25;;;;;;;4.63;1.90;;;1.70;99.90;;;;;;5038563;28;20470;-61
2020/12/28 08:15:50;;;;;;;2.55;1.08;;;1.70;99.90;;;;;;5014871;28;20030;-60
2020/12/28 08:18:16;;;;;;;13.57;4.03;;;1.70;99.90;;;;;;5028340;28;20033;-61
2020/12/28 08:20:41;;;;;;;13.23;7.43;;;1.70;99.90;;;;;;5030105;28;20033;-62
2020/12/28 08:23:07;;;;;;;9.73;5.13;;;1.70;99.90;;;;;;5038110;28;20078;-62
2020/12/28 08:25:35;;;;;;;5.75;3.20;;;1.70;99.90;;;;;;5032740;28;20056;-62
2020/12/28 08:28:02;;;;;;;5.25;2.83;;;1.70;99.90;;;;;;5037077;28;20040;-61
2020/12/28 08:30:29;;;;;;;4.35;2.50;;;1.60;99.90;;;;;;5032661;28;20095;-62
2020/12/28 08:32:56;;;;;;;3.67;1.98;;;1.70;99.90;;;;;;5023273;28;20021;-61
2020/12/28 08:35:23;;;;;;;6.43;2.85;;;1.60;99.90;;;;;;5037107;28;20078;-62
2020/12/28 08:37:50;;;;;;;7.28;2.60;;;1.70;99.90;;;;;;5033683;28;20506;-61
2020/12/28 08:40:22;;;;;;;5.55;3.50;;;1.70;99.90;;;;;;5036883;28;20035;-62
2020/12/28 08:42:58;;;;;;;10.32;5.57;;;1.70;99.90;;;;;;5034031;28;20115;-61
2020/12/28 08:45:26;;;;;;;12.38;6.13;;;1.70;99.90;;;;;;5037584;28;20028;-61
2020/12/28 08:47:54;;;;;;;12.48;5.82;;;1.70;99.90;;;;;;5033330;28;20087;-59
2020/12/28 08:50:20;;;;;;;10.20;4.95;;;1.80;99.90;;;;;;5027274;28;20445;-61
2020/12/28 08:52:55;;;;;;;16.10;6.53;;;1.80;99.90;;;;;;5024340;28;20232;-60
2020/12/28 08:55:22;;;;;;;8.85;4.53;;;2.00;99.90;;;;;;5032267;28;20116;-61
2020/12/28 08:57:55;;;;;;;20.55;7.90;;;2.10;99.90;;;;;;5029184;28;20029;-61
2020/12/28 09:00:23;;;;;;;23.13;9.82;;;2.20;99.90;;;;;;5017455;28;20189;-61
2020/12/28 09:02:57;;;;;;;10.02;4.35;;;2.30;99.90;;;;;;5035390;28;20018;-60
2020/12/28 09:05:30;;;;;;;21.98;9.10;;;2.50;99.90;;;;;;5033144;28;20031;-60
2020/12/28 09:07:55;;;;;;;6.82;3.83;;;2.70;99.90;;;;;;5019346;28;20079;-61
2020/12/28 09:10:21;;;;;;;8.38;3.33;;;2.80;99.90;;;;;;5028914;28;20029;-61
2020/12/28 09:12:46;;;;;;;3.40;1.80;;;3.00;99.90;;;;;;5025080;28;20060;-61
2020/12/28 09:15:12;;;;;;;5.95;2.90;;;3.20;99.90;;;;;;5037660;28;20021;-61
2020/12/28 09:17:38;;;;;;;3.28;2.38;;;3.40;99.90;;;;;;5030856;28;20021;-61
2020/12/28 09:20:05;;;;;;;2.72;1.70;;;3.50;99.90;;;;;;5035101;28;20226;-60
2020/12/28 09:22:31;;;;;;;2.08;0.93;;;3.50;99.90;;;;;;5030033;28;20025;-61
2020/12/28 09:24:56;;;;;;;1.70;0.80;;;3.60;99.90;;;;;;5023997;28;20457;-62
2020/12/28 09:27:22;;;;;;;2.78;0.93;;;3.70;99.90;;;;;;5028551;28;20030;-59
2020/12/28 09:29:47;;;;;;;2.75;1.02;;;3.70;99.90;;;;;;5035032;28;20633;-61
2020/12/28 09:32:13;;;;;;;0.85;0.50;;;3.70;99.90;;;;;;5023544;28;20526;-61
2020/12/28 09:34:39;;;;;;;2.90;0.75;;;3.70;99.90;;;;;;5017283;28;20036;-60
2020/12/28 09:37:06;;;;;;;1.80;0.85;;;3.70;99.90;;;;;;5022524;28;20406;-61
2020/12/28 09:39:33;;;;;;;13.93;5.88;;;3.70;99.90;;;;;;5036110;28;20076;-62
2020/12/28 09:41:59;;;;;;;7.68;2.90;;;3.70;99.90;;;;;;5023502;28;20563;-61
2020/12/28 09:44:25;;;;;;;3.25;1.30;;;3.70;99.90;;;;;;5036394;28;20021;-60
2020/12/28 09:46:51;;;;;;;4.03;1.13;;;3.70;99.90;;;;;;5022469;28;20076;-62
2020/12/28 09:49:17;;;;;;;4.13;1.10;;;3.70;99.90;;;;;;5030990;28;20021;-62
2020/12/28 09:51:47;;;;;;;2.47;1.55;;;3.80;99.90;;;;;;5035301;28;20025;-62
2020/12/28 09:54:13;;;;;;;4.85;1.10;;;3.80;99.90;;;;;;5034074;28;20064;-62
2020/12/28 09:56:38;;;;;;;4.10;1.13;;;3.80;99.90;;;;;;5035699;28;20030;-62
2020/12/28 09:59:04;;;;;;;2.15;1.00;;;3.90;99.90;;;;;;5026743;28;20027;-62
2020/12/28 10:01:30;;;;;;;4.57;1.30;;;3.90;99.90;;;;;;5015515;28;20068;-62
2020/12/28 10:03:55;;;;;;;2.20;1.05;;;4.00;99.90;;;;;;5026340;28;20075;-59
2020/12/28 10:06:30;;;;;;;1.05;0.80;;;4.10;99.90;;;;;;5030252;28;20083;-61
2020/12/28 10:08:56;;;;;;;2.17;1.05;;;4.30;99.90;;;;;;5025975;28;20802;-60
2020/12/28 10:11:22;;;;;;;2.03;0.80;;;4.40;99.90;;;;;;5027511;28;20056;-60
2020/12/28 10:13:47;;;;;;;1.67;0.88;;;4.40;99.90;;;;;;5027716;28;20026;-60
2020/12/28 10:16:13;;;;;;;2.10;0.70;;;4.50;99.90;;;;;;5026810;28;20031;-61
2020/12/28 10:18:42;;;;;;;1.45;0.80;;;4.60;99.90;;;;;;5020552;28;20495;-62
2020/12/28 10:21:09;;;;;;;1.90;0.90;;;4.70;99.90;;;;;;5029012;28;20021;-61
2020/12/28 10:23:35;;;;;;;1.30;0.85;;;4.70;99.90;;;;;;5036058;28;20087;-61
2020/12/28 10:26:00;;;;;;;1.50;0.82;;;4.80;99.90;;;;;;5029050;28;20041;-60
2020/12/28 10:28:26;;;;;;;2.45;1.30;;;4.80;99.90;;;;;;5031187;28;20024;-61
2020/12/28 10:30:51;;;;;;;1.75;0.80;;;4.80;99.90;;;;;;5029449;28;20451;-62
2020/12/28 10:33:17;;;;;;;2.13;1.10;;;4.80;99.90;;;;;;5025662;28;20048;-62
2020/12/28 10:35:42;;;;;;;1.65;1.00;;;4.80;99.90;;;;;;5026259;28;20396;-60
2020/12/28 10:38:08;;;;;;;2.08;1.10;;;4.80;99.90;;;;;;5015124;28;20486;-60
2020/12/28 10:40:33;;;;;;;3.88;1.33;;;4.80;99.90;;;;;;5016996;28;20104;-61
2020/12/28 10:42:59;;;;;;;4.03;1.40;;;4.70;99.90;;;;;;5025346;28;20100;-60
2020/12/28 10:45:25;;;;;;;0.85;0.50;;;4.70;99.90;;;;;;5016337;28;20037;-63
2020/12/28 10:47:51;;;;;;;1.25;0.70;;;4.70;99.90;;;;;;4978939;28;20025;-60
2020/12/28 10:50:17;;;;;;;3.22;1.10;;;4.70;99.90;;;;;;5023551;28;20022;-58
2020/12/28 10:52:43;;;;;;;3.05;1.00;;;4.80;99.90;;;;;;5020233;28;20033;-59
2020/12/28 10:55:08;;;;;;;2.65;0.93;;;4.80;99.90;;;;;;5027829;28;20029;-59
2020/12/28 10:57:34;;;;;;;2.47;0.93;;;4.90;99.90;;;;;;5026735;28;20025;-59
2020/12/28 10:59:59;;;;;;;1.75;1.00;;;4.90;99.90;;;;;;5022755;28;20029;-58
2020/12/28 11:02:25;;;;;;;1.73;0.65;;;4.90;99.90;;;;;;5026579;28;20495;-59
2020/12/28 11:04:50;;;;;;;4.07;1.10;;;5.00;99.90;;;;;;5029464;28;20443;-60
2020/12/28 11:07:16;;;;;;;0.77;0.65;;;5.00;99.90;;;;;;5026853;28;20025;-60
2020/12/28 11:09:42;;;;;;;2.20;0.90;;;5.10;99.90;;;;;;5038831;28;20045;-58
2020/12/28 11:12:07;;;;;;;3.60;1.10;;;5.20;99.90;;;;;;5041494;28;20022;-60
2020/12/28 11:14:33;;;;;;;1.90;1.08;;;5.20;99.90;;;;;;5034750;28;20034;-63
2020/12/28 11:17:02;;;;;;;3.75;1.10;;;5.30;99.90;;;;;;5041998;28;20048;-62
2020/12/28 11:19:27;;;;;;;1.55;0.90;;;5.40;99.90;;;;;;5035650;28;20013;-61
2020/12/28 11:21:53;;;;;;;2.65;1.15;;;5.50;99.90;;;;;;5037262;28;20076;-63
2020/12/28 11:24:18;;;;;;;2.30;0.98;;;5.70;99.90;;;;;;5032939;28;20018;-62
2020/12/28 11:26:44;;;;;;;4.80;2.05;;;6.00;99.90;;;;;;5043053;28;20021;-60
2020/12/28 11:29:09;;;;;;;2.85;1.00;;;6.10;99.90;;;;;;5035213;28;20032;-60
2020/12/28 11:31:35;;;;;;;3.63;1.00;;;6.10;99.90;;;;;;5026857;28;20041;-60
2020/12/28 11:34:00;;;;;;;2.30;1.38;;;6.00;99.90;;;;;;5041447;28;20108;-60
2020/12/28 11:36:26;;;;;;;2.10;1.20;;;6.10;99.90;;;;;;5033919;28;20029;-63
2020/12/28 11:38:52;;;;;;;2.08;1.27;;;6.00;99.90;;;;;;5038336;28;20061;-61
2020/12/28 11:41:18;;;;;;;4.10;1.42;;;6.00;99.90;;;;;;5033312;28;20538;-60
2020/12/28 11:43:44;;;;;;;2.03;1.20;;;5.90;99.90;;;;;;5025418;28;20060;-60
2020/12/28 11:46:10;;;;;;;2.58;1.25;;;5.90;99.90;;;;;;5031077;28;20022;-60
2020/12/28 11:48:37;;;;;;;2.30;1.05;;;5.90;99.90;;;;;;5027622;28;20037;-60
2020/12/28 11:51:04;;;;;;;4.32;1.20;;;5.90;99.90;;;;;;5036812;28;20018;-59
2020/12/28 11:53:31;;;;;;;2.88;1.10;;;5.80;99.90;;;;;;5022499;28;20465;-60
2020/12/28 11:56:03;;;;;;;2.30;1.10;;;5.80;99.90;;;;;;5033219;28;20048;-61
2020/12/28 11:58:31;;;;;;;2.28;1.13;;;5.70;99.90;;;;;;5028313;28;20065;-61
2020/12/28 12:00:57;;;;;;;2.25;1.05;;;5.60;99.90;;;;;;5027505;28;20060;-61
2020/12/28 12:03:23;;;;;;;2.10;0.90;;;5.60;99.90;;;;;;5038456;28;20131;-61
2020/12/28 12:05:49;;;;;;;3.72;1.15;;;5.60;99.90;;;;;;5036056;28;20032;-61
2020/12/28 12:08:14;;;;;;;4.65;1.38;;;5.50;99.90;;;;;;5034497;28;20031;-60
2020/12/28 12:10:40;;;;;;;2.72;1.30;;;5.50;99.90;;;;;;5031289;28;20037;-60
2020/12/28 12:13:06;;;;;;;1.67;0.88;;;5.50;99.90;;;;;;5031349;28;20033;-60
2020/12/28 12:15:31;;;;;;;1.85;0.93;;;5.40;99.90;;;;;;5014609;28;20034;-60
2020/12/28 12:17:57;;;;;;;3.20;1.00;;;5.40;99.90;;;;;;5017992;28;20040;-61
2020/12/28 12:20:22;;;;;;;4.55;1.13;;;5.40;99.90;;;;;;5027253;28;20117;-59
2020/12/28 12:22:48;;;;;;;2.33;0.85;;;5.50;99.90;;;;;;5032794;28;20025;-59
2020/12/28 12:25:13;;;;;;;2.20;0.90;;;5.50;99.90;;;;;;5019069;28;20257;-60
2020/12/28 12:27:39;;;;;;;3.03;0.82;;;5.60;99.90;;;;;;5024163;28;20129;-60
2020/12/28 12:30:04;;;;;;;2.78;0.80;;;5.60;99.90;;;;;;5027769;28;20028;-59
2020/12/28 12:32:31;;;;;;;2.35;1.00;;;5.70;99.90;;;;;;5019500;28;20481;-60
2020/12/28 12:34:56;;;;;;;6.18;2.40;;;5.80;99.90;;;;;;5018122;28;20033;-59
2020/12/28 12:37:22;;;;;;;3.97;1.05;;;5.80;99.90;;;;;;5020631;28;20026;-60
2020/12/28 12:39:47;;;;;;;3.17;0.75;;;5.80;99.90;;;;;;5029206;28;20398;-59
2020/12/28 12:42:13;;;;;;;4.15;1.00;;;5.80;99.90;;;;;;5025622;28;20481;-60
2020/12/28 12:44:42;;;;;;;1.55;0.73;;;5.70;99.90;;;;;;5020203;28;20025;-60
2020/12/28 12:47:08;;;;;;;1.00;0.68;;;5.70;99.90;;;;;;5025938;28;20071;-60
2020/12/28 12:49:34;;;;;;;1.35;1.02;;;5.70;99.90;;;;;;5026636;28;20021;-61
2020/12/28 12:52:20;;;;;;;3.28;1.08;;;5.60;99.90;;;;;;5023101;28;20029;-61